createdAt,value
2023-05-15T01:14:36.644Z,0.2
2023-05-15T01:29:33.687Z,0.1
2023-05-15T01:59:17.457Z,0.2
2023-05-15T02:01:03.649Z,0.2
2023-05-15T02:05:39.256Z,0.2
2023-05-15T02:15:36.618Z,0.2
2023-05-15T02:20:36.503Z,0.1
2023-05-15T02:25:36.547Z,0.2
2023-05-15T02:30:35.681Z,0.2
2023-05-15T02:35:35.552Z,0.2
2023-05-15T02:40:34.913Z,0.2
2023-05-15T02:45:34.824Z,0.2
2023-05-15T02:50:35.793Z,0.1
2023-05-15T02:55:32.012Z,0.2
2023-05-15T03:04:52.031Z,0.2
2023-05-15T03:09:51.612Z,0.2
2023-05-15T03:14:49.605Z,0.2
2023-05-15T03:19:49.900Z,0.2
2023-05-15T03:24:49.456Z,0.3
2023-05-15T03:29:50.854Z,0.5
2023-05-15T03:34:47.714Z,0.9
2023-05-15T03:39:46.936Z,1.7
2023-05-15T03:44:46.831Z,2.7
2023-05-15T03:49:46.107Z,3.6
2023-05-15T03:54:44.020Z,3.9
2023-05-15T03:59:31.773Z,5.2
2023-05-15T04:04:31.501Z,7.4
2023-05-15T04:09:31.211Z,9.3
2023-05-15T04:14:30.462Z,11.4
2023-05-15T04:19:30.553Z,13.7
2023-05-15T04:24:30.028Z,15.5
2023-05-15T04:29:35.902Z,16.8
2023-05-15T04:34:30.810Z,19.5
2023-05-15T04:39:37.442Z,20.6
2023-05-15T04:44:37.434Z,20.3
2023-05-15T04:54:36.143Z,22
2023-05-15T06:44:12.676Z,127
2023-05-15T07:04:05.647Z,412.4
2023-05-15T07:09:05.492Z,449.7
2023-05-15T07:14:05.869Z,194
2023-05-15T07:19:05.826Z,187.3
2023-05-15T07:24:05.179Z,231.2
2023-05-15T07:29:04.607Z,249.8
2023-05-15T07:34:04.900Z,222.3
2023-05-15T07:39:04.048Z,239.4
2023-05-15T07:44:05.181Z,167.9
2023-05-15T07:49:02.172Z,217.3
2023-05-15T07:54:02.375Z,310.7
2023-05-15T07:58:47.678Z,679.6
2023-05-15T08:03:48.091Z,730.1
2023-05-15T08:08:46.636Z,612.4
2023-05-15T08:13:47.169Z,509.4
2023-05-15T08:18:47.056Z,225.5
2023-05-15T08:23:47.774Z,273.6
2023-05-15T08:28:44.056Z,481
2023-05-15T08:33:43.958Z,463.3
2023-05-15T08:38:43.318Z,629.1
2023-05-15T08:43:43.577Z,687.7
2023-05-15T08:48:41.694Z,512.6
2023-05-15T08:53:41.144Z,764.3
2023-05-15T08:58:40.490Z,799.3
2023-05-15T09:00:26.262Z,782.2
2023-05-15T09:05:02.054Z,646.2
2023-05-15T09:10:02.166Z,708.2
2023-05-15T09:15:02.028Z,713.9
2023-05-15T09:20:01.815Z,768.8
2023-05-15T09:25:03.463Z,731.8
2023-05-15T09:29:59.838Z,724.9
2023-05-15T09:34:59.749Z,772.4
2023-05-15T09:39:59.416Z,790.8
2023-05-15T09:44:58.010Z,802.8
2023-05-15T09:49:57.968Z,335.8
2023-05-15T09:55:00.780Z,774.3
2023-05-15T11:04:23.647Z,1019.6
2023-05-15T11:09:22.171Z,1045.2
2023-05-15T11:14:18.835Z,394.1
2023-05-15T11:19:19.335Z,152.7
2023-05-15T11:24:18.473Z,160.6
2023-05-15T11:29:17.346Z,167.5
2023-05-15T11:34:17.021Z,217.2
2023-05-15T11:39:16.701Z,191.3
2023-05-15T11:44:16.034Z,139.2
2023-05-15T11:49:16.993Z,121.9
2023-05-15T11:54:12.794Z,106.8
2023-05-15T11:59:12.717Z,91
2023-05-15T12:04:12.980Z,105.2
2023-05-15T12:09:11.676Z,133.9
2023-05-15T12:14:09.115Z,177.1
2023-05-15T12:19:08.990Z,269.7
2023-05-15T12:24:24.412Z,817.6
2023-05-15T12:29:08.315Z,556.4
2023-05-15T12:34:07.646Z,446.7
2023-05-15T12:39:07.647Z,1007.8
2023-05-15T12:44:07.972Z,690.5
2023-05-15T12:49:07.657Z,357.7
2023-05-15T12:54:09.285Z,441.6
2023-05-15T12:59:05.905Z,749.4
2023-05-15T13:00:52.076Z,274.4
2023-05-15T13:05:38.928Z,156.6
2023-05-15T13:10:36.221Z,802.7
2023-05-15T13:15:35.372Z,432.7
2023-05-15T13:20:35.809Z,652
2023-05-15T13:25:32.834Z,295.6
2023-05-15T13:30:32.995Z,147.8
2023-05-15T13:40:33.569Z,245.3
2023-05-15T13:45:21.623Z,194
2023-05-15T13:50:21.627Z,160.1
2023-05-15T13:55:20.902Z,116.5
2023-05-15T16:04:14.550Z,99.8
2023-05-15T16:09:10.367Z,72.3
2023-05-15T16:14:12.653Z,61.5
2023-05-15T16:19:10.794Z,50.2
2023-05-15T16:24:09.736Z,52.7
2023-05-15T16:29:09.214Z,62.9
2023-05-15T16:34:10.114Z,71
2023-05-15T16:39:09.519Z,74.2
2023-05-15T16:44:09.907Z,76.8
2023-05-15T16:49:06.623Z,70.2
2023-05-15T16:54:06.340Z,60.6
2023-05-15T16:59:05.787Z,67.7
2023-05-15T17:00:52.399Z,68.5
2023-05-15T17:05:36.490Z,58.9
2023-05-15T17:10:35.819Z,38.5
2023-05-15T17:15:36.191Z,26.4
2023-05-15T17:20:34.843Z,25.1
2023-05-15T17:30:34.095Z,22.8
2023-05-15T17:45:21.386Z,12.7
2023-05-15T17:50:21.121Z,11.7
2023-05-15T17:55:18.973Z,10.2
2023-05-15T20:04:18.536Z,0.2
2023-05-15T20:09:19.111Z,0.2
2023-05-15T20:14:15.488Z,0.2
2023-05-15T20:19:15.379Z,0.2
2023-05-15T20:24:14.913Z,0.2
2023-05-15T20:29:16.841Z,0.2
2023-05-15T20:34:12.326Z,0.2
2023-05-15T20:39:11.913Z,0.2
2023-05-15T20:44:11.273Z,0.2
2023-05-15T20:49:10.805Z,0.2
2023-05-15T20:54:10.315Z,0.2
2023-05-15T20:59:10.590Z,0.2
2023-05-15T21:09:09.512Z,0.2
2023-05-15T21:14:07.873Z,0.2
2023-05-15T21:24:07.920Z,0.2
2023-05-15T21:29:07.424Z,0.2
2023-05-15T21:39:06.128Z,0.2
2023-05-15T21:44:06.227Z,0.2
2023-05-15T21:54:07.089Z,0.2
2023-05-15T21:59:03.247Z,0.2
2023-05-15T22:00:49.107Z,0.2
2023-05-15T22:05:35.155Z,0.2
2023-05-15T22:10:33.955Z,0.2
2023-05-15T22:15:33.986Z,0.2
2023-05-15T22:20:33.627Z,0.1
2023-05-15T22:25:34.255Z,0.2
2023-05-15T22:30:21.068Z,0.2
2023-05-15T22:35:20.923Z,0.2
2023-05-15T22:40:20.192Z,0.1
2023-05-15T22:45:21.441Z,0.2
2023-05-15T22:50:18.575Z,0.2
2023-05-15T22:55:17.864Z,0.2
2023-05-15T22:59:45.314Z,0.2
2023-05-15T23:04:42.415Z,0.2
2023-05-15T23:09:42.167Z,0.2
2023-05-15T23:14:41.291Z,0.2
2023-05-15T23:19:41.203Z,0.2
2023-05-15T23:24:40.534Z,0.2
2023-05-15T23:29:40.347Z,0.1
2023-05-15T23:34:40.399Z,0.2
2023-05-15T23:39:39.866Z,0.2
2023-05-15T23:44:40.750Z,0.2
2023-05-15T23:54:37.245Z,0.2
